AWE623 KLAX-KMCO
Flight info
| Callsign | AWE623 |
|---|---|
| Flight time | 4h 9m |
| Altitude | 38000 |
| Route | DOTSS2 CNERY BLH SPTFR Q4 ELP JCT J86 LEV Y280 CHRGE PRICY5 |
| Aircraft | A320/M-SDE3FGHIRWY/LB1 |
Departure
| Time | 2026-04-20 18:20 |
|---|---|
| Airport | Los Angeles International Airport (KLAX) |
Arrival
| Time | 2026-04-20 22:29 |
|---|---|
| Airport | Orlando International Airport (KMCO) |
| Time | Latitude | Longitude | Altitude | Speed | Heading |
|---|---|---|---|---|---|
| 2026-04-20 17:43 | 33.94047 | -118.40746 | 125 ft | 0 kts | 107° |
| 2026-04-20 18:07 | 33.94050 | -118.40758 | 125 ft | 4 kts | 106° |
| 2026-04-20 18:07 | 33.94057 | -118.40789 | 124 ft | 4 kts | 108° |
| 2026-04-20 18:07 | 33.94068 | -118.40818 | 124 ft | 4 kts | 129° |
| 2026-04-20 18:07 | 33.94082 | -118.40831 | 125 ft | 0 kts | 173° |
| 2026-04-20 18:13 | 33.94035 | -118.40824 | 124 ft | 13 kts | 173° |
| 2026-04-20 18:13 | 33.93919 | -118.40804 | 124 ft | 18 kts | 159° |
| 2026-04-20 18:13 | 33.93828 | -118.40714 | 125 ft | 16 kts | 126° |
| 2026-04-20 18:14 | 33.93817 | -118.40594 | 125 ft | 13 kts | 82° |
| 2026-04-20 18:14 | 33.93828 | -118.40491 | 123 ft | 11 kts | 83° |
| 2026-04-20 18:14 | 33.93840 | -118.40375 | 124 ft | 19 kts | 83° |
| 2026-04-20 18:14 | 33.93855 | -118.40224 | 123 ft | 17 kts | 82° |
| 2026-04-20 18:15 | 33.93871 | -118.40072 | 124 ft | 20 kts | 83° |
| 2026-04-20 18:15 | 33.93888 | -118.39906 | 124 ft | 19 kts | 83° |
| 2026-04-20 18:15 | 33.93903 | -118.39760 | 125 ft | 17 kts | 83° |
| 2026-04-20 18:15 | 33.93917 | -118.39619 | 125 ft | 18 kts | 83° |
| 2026-04-20 18:16 | 33.93934 | -118.39453 | 124 ft | 22 kts | 83° |
| 2026-04-20 18:16 | 33.93955 | -118.39260 | 122 ft | 25 kts | 83° |
| 2026-04-20 18:16 | 33.93977 | -118.39043 | 125 ft | 27 kts | 83° |
| 2026-04-20 18:16 | 33.93999 | -118.38822 | 121 ft | 25 kts | 82° |
| 2026-04-20 18:17 | 33.94020 | -118.38607 | 125 ft | 26 kts | 83° |
| 2026-04-20 18:17 | 33.94041 | -118.38399 | 121 ft | 22 kts | 83° |
| 2026-04-20 18:17 | 33.94058 | -118.38235 | 124 ft | 18 kts | 83° |
| 2026-04-20 18:17 | 33.94072 | -118.38095 | 125 ft | 14 kts | 83° |
| 2026-04-20 18:18 | 33.94049 | -118.38016 | 125 ft | 10 kts | 156° |
| 2026-04-20 18:18 | 33.93997 | -118.38034 | 124 ft | 7 kts | 225° |
| 2026-04-20 18:18 | 33.93978 | -118.38085 | 124 ft | 7 kts | 259° |
| 2026-04-20 18:18 | 33.93973 | -118.38139 | 125 ft | 1 kts | 263° |
| 2026-04-20 18:19 | 33.93972 | -118.38146 | 125 ft | 6 kts | 263° |
| 2026-04-20 18:19 | 33.93939 | -118.38472 | 123 ft | 74 kts | 263° |
| 2026-04-20 18:19 | 33.93852 | -118.39321 | 123 ft | 128 kts | 263° |
| 2026-04-20 18:19 | 33.93725 | -118.40572 | 148 ft | 168 kts | 263° |
| 2026-04-20 18:20 | 33.93608 | -118.41948 | 755 ft | 164 kts | 264° |
| 2026-04-20 18:20 | 33.93480 | -118.43394 | 1043 ft | 189 kts | 261° |
| 2026-04-20 18:20 | 33.93294 | -118.45052 | 1488 ft | 205 kts | 261° |
| 2026-04-20 18:20 | 33.92978 | -118.46870 | 1829 ft | 233 kts | 246° |
| 2026-04-20 18:21 | 33.92092 | -118.48590 | 2233 ft | 250 kts | 230° |
| 2026-04-20 18:21 | 33.90918 | -118.50187 | 2815 ft | 260 kts | 225° |
| 2026-04-20 18:21 | 33.89650 | -118.51745 | 2965 ft | 261 kts | 225° |
| 2026-04-20 18:21 | 33.88376 | -118.53313 | 3009 ft | 262 kts | 225° |
| 2026-04-20 18:22 | 33.86979 | -118.54700 | 3016 ft | 264 kts | 208° |
| 2026-04-20 18:22 | 33.85218 | -118.55515 | 3539 ft | 275 kts | 191° |
| 2026-04-20 18:22 | 33.83285 | -118.55675 | 4027 ft | 289 kts | 172° |
| 2026-04-20 18:22 | 33.81274 | -118.55202 | 4707 ft | 296 kts | 167° |
| 2026-04-20 18:23 | 33.79259 | -118.54671 | 5505 ft | 298 kts | 167° |
| 2026-04-20 18:23 | 33.77226 | -118.54124 | 6267 ft | 302 kts | 168° |
| 2026-04-20 18:23 | 33.75146 | -118.53560 | 6825 ft | 313 kts | 168° |
| 2026-04-20 18:23 | 33.73028 | -118.52979 | 7704 ft | 304 kts | 166° |
| 2026-04-20 18:24 | 33.71145 | -118.52032 | 9023 ft | 287 kts | 149° |
| 2026-04-20 18:24 | 33.69674 | -118.50517 | 10241 ft | 274 kts | 133° |
| 2026-04-20 18:24 | 33.68662 | -118.48591 | 11006 ft | 276 kts | 115° |
| 2026-04-20 18:24 | 33.68010 | -118.46405 | 11646 ft | 279 kts | 112° |
| 2026-04-20 18:25 | 33.67370 | -118.44204 | 12266 ft | 281 kts | 113° |
| 2026-04-20 18:25 | 33.66728 | -118.42013 | 12866 ft | 284 kts | 113° |
| 2026-04-20 18:25 | 33.66067 | -118.39761 | 13468 ft | 286 kts | 113° |
| 2026-04-20 18:25 | 33.65398 | -118.37500 | 14043 ft | 289 kts | 114° |
| 2026-04-20 18:26 | 33.64791 | -118.35189 | 14541 ft | 294 kts | 107° |
| 2026-04-20 18:26 | 33.64478 | -118.32727 | 15049 ft | 301 kts | 97° |
| 2026-04-20 18:26 | 33.64456 | -118.30192 | 15551 ft | 305 kts | 94° |
| 2026-04-20 18:26 | 33.64465 | -118.27629 | 16053 ft | 308 kts | 94° |
| 2026-04-20 18:27 | 33.64467 | -118.25044 | 16553 ft | 311 kts | 94° |
| 2026-04-20 18:27 | 33.64467 | -118.22439 | 17050 ft | 315 kts | 94° |
| 2026-04-20 18:27 | 33.64465 | -118.19793 | 17548 ft | 318 kts | 94° |
| 2026-04-20 18:27 | 33.64464 | -118.17129 | 18058 ft | 320 kts | 94° |
| 2026-04-20 18:28 | 33.64463 | -118.14442 | 18533 ft | 323 kts | 94° |
| 2026-04-20 18:28 | 33.64463 | -118.11731 | 18974 ft | 326 kts | 94° |
| 2026-04-20 18:28 | 33.64463 | -118.09039 | 19399 ft | 328 kts | 94° |
| 2026-04-20 18:28 | 33.64460 | -118.06294 | 19820 ft | 331 kts | 94° |
| 2026-04-20 18:29 | 33.64455 | -118.03520 | 20249 ft | 333 kts | 94° |
| 2026-04-20 18:29 | 33.64450 | -118.00724 | 20617 ft | 339 kts | 93° |
| 2026-04-20 18:29 | 33.64444 | -117.97839 | 20730 ft | 353 kts | 93° |
| 2026-04-20 18:29 | 33.64439 | -117.94836 | 20861 ft | 366 kts | 93° |
| 2026-04-20 18:30 | 33.64432 | -117.91731 | 20979 ft | 378 kts | 93° |
| 2026-04-20 18:30 | 33.64422 | -117.88523 | 21098 ft | 391 kts | 93° |
| 2026-04-20 18:30 | 33.64411 | -117.85215 | 21232 ft | 403 kts | 92° |
| 2026-04-20 18:30 | 33.64390 | -117.81788 | 21360 ft | 414 kts | 95° |
| 2026-04-20 18:31 | 33.64053 | -117.78327 | 21489 ft | 423 kts | 105° |
| 2026-04-20 18:31 | 33.63281 | -117.74911 | 21613 ft | 431 kts | 109° |
| 2026-04-20 18:31 | 33.62416 | -117.71417 | 21743 ft | 440 kts | 109° |
| 2026-04-20 18:31 | 33.61535 | -117.67864 | 21860 ft | 449 kts | 109° |
| 2026-04-20 18:32 | 33.60636 | -117.64237 | 21996 ft | 457 kts | 109° |
| 2026-04-20 18:32 | 33.59726 | -117.60555 | 22123 ft | 463 kts | 109° |
| 2026-04-20 18:32 | 33.58806 | -117.56815 | 22251 ft | 469 kts | 109° |
| 2026-04-20 18:32 | 33.57877 | -117.53046 | 22379 ft | 475 kts | 109° |
| 2026-04-20 18:33 | 33.56929 | -117.49211 | 22507 ft | 480 kts | 109° |
| 2026-04-20 18:33 | 33.56298 | -117.46665 | 22584 ft | 483 kts | 109° |
| 2026-04-20 18:33 | 33.55028 | -117.41549 | 22759 ft | 488 kts | 109° |
| 2026-04-20 18:33 | 33.54038 | -117.37577 | 22927 ft | 490 kts | 109° |
| 2026-04-20 18:34 | 33.53076 | -117.33717 | 23135 ft | 491 kts | 109° |
| 2026-04-20 18:34 | 33.52094 | -117.29790 | 23321 ft | 492 kts | 109° |
| 2026-04-20 18:34 | 33.51121 | -117.25858 | 23492 ft | 494 kts | 107° |
| 2026-04-20 18:34 | 33.50642 | -117.23116 | 23598 ft | 497 kts | 100° |
| 2026-04-20 18:35 | 33.50402 | -117.17630 | 23784 ft | 500 kts | 92° |
| 2026-04-20 18:35 | 33.50373 | -117.14834 | 24153 ft | 492 kts | 92° |
| 2026-04-20 18:35 | 33.50331 | -117.10819 | 25144 ft | 473 kts | 92° |
| 2026-04-20 18:35 | 33.50286 | -117.07006 | 26217 ft | 453 kts | 93° |
| 2026-04-20 18:36 | 33.50234 | -117.03307 | 27359 ft | 433 kts | 93° |
| 2026-04-20 18:36 | 33.50184 | -116.99786 | 28521 ft | 413 kts | 94° |
| 2026-04-20 18:36 | 33.50135 | -116.96418 | 29479 ft | 400 kts | 94° |
| 2026-04-20 18:36 | 33.50083 | -116.93094 | 29997 ft | 398 kts | 94° |
| 2026-04-20 18:37 | 33.50029 | -116.89784 | 30334 ft | 398 kts | 94° |
| 2026-04-20 18:37 | 33.49974 | -116.86451 | 30589 ft | 400 kts | 94° |
| 2026-04-20 18:37 | 33.49916 | -116.83107 | 30849 ft | 402 kts | 94° |
| 2026-04-20 18:37 | 33.49861 | -116.79762 | 31118 ft | 403 kts | 93° |
| 2026-04-20 18:38 | 33.49808 | -116.76395 | 31384 ft | 404 kts | 93° |
| 2026-04-20 18:38 | 33.49753 | -116.73026 | 31619 ft | 406 kts | 94° |
| 2026-04-20 18:38 | 33.49695 | -116.69634 | 31842 ft | 408 kts | 93° |
| 2026-04-20 18:38 | 33.49641 | -116.66271 | 32084 ft | 409 kts | 93° |
| 2026-04-20 18:39 | 33.49586 | -116.62817 | 32337 ft | 410 kts | 93° |
| 2026-04-20 18:39 | 33.49529 | -116.59429 | 32564 ft | 411 kts | 94° |
| 2026-04-20 18:39 | 33.49468 | -116.56003 | 32756 ft | 414 kts | 93° |
| 2026-04-20 18:39 | 33.49403 | -116.52546 | 32964 ft | 415 kts | 93° |
| 2026-04-20 18:40 | 33.49337 | -116.49089 | 33170 ft | 416 kts | 93° |
| 2026-04-20 18:40 | 33.49270 | -116.45606 | 33387 ft | 417 kts | 93° |
| 2026-04-20 18:40 | 33.49204 | -116.42134 | 33591 ft | 419 kts | 93° |
| 2026-04-20 18:40 | 33.49143 | -116.38648 | 33797 ft | 420 kts | 93° |
| 2026-04-20 18:41 | 33.49090 | -116.35132 | 33962 ft | 422 kts | 93° |
| 2026-04-20 18:41 | 33.49042 | -116.31614 | 34109 ft | 423 kts | 92° |
| 2026-04-20 18:41 | 33.48997 | -116.28082 | 34262 ft | 424 kts | 93° |
| 2026-04-20 18:41 | 33.48951 | -116.24544 | 34377 ft | 426 kts | 92° |
| 2026-04-20 18:42 | 33.48900 | -116.21037 | 34519 ft | 427 kts | 92° |
| 2026-04-20 18:42 | 33.48843 | -116.17426 | 34658 ft | 428 kts | 92° |
| 2026-04-20 18:42 | 33.48783 | -116.13850 | 34796 ft | 429 kts | 93° |
| 2026-04-20 18:42 | 33.48721 | -116.10276 | 34935 ft | 430 kts | 93° |
| 2026-04-20 18:43 | 33.48683 | -116.06675 | 35071 ft | 432 kts | 89° |
| 2026-04-20 18:43 | 33.48987 | -116.03081 | 35192 ft | 435 kts | 80° |
| 2026-04-20 18:43 | 33.49733 | -115.99575 | 35324 ft | 437 kts | 72° |
| 2026-04-20 18:43 | 33.50747 | -115.96138 | 35445 ft | 438 kts | 71° |
| 2026-04-20 18:44 | 33.51747 | -115.92738 | 35565 ft | 439 kts | 71° |
| 2026-04-20 18:44 | 33.52758 | -115.89285 | 35690 ft | 440 kts | 71° |
| 2026-04-20 18:44 | 33.53774 | -115.85804 | 35798 ft | 440 kts | 71° |
| 2026-04-20 18:44 | 33.54782 | -115.82345 | 35918 ft | 441 kts | 71° |
| 2026-04-20 18:45 | 33.55792 | -115.78868 | 36046 ft | 442 kts | 71° |
| 2026-04-20 18:45 | 33.56804 | -115.75381 | 36166 ft | 443 kts | 71° |
| 2026-04-20 18:45 | 33.57813 | -115.71900 | 36293 ft | 443 kts | 71° |
| 2026-04-20 18:45 | 33.58826 | -115.68406 | 36413 ft | 443 kts | 71° |
| 2026-04-20 18:46 | 33.59839 | -115.64914 | 36544 ft | 443 kts | 71° |
| 2026-04-20 18:46 | 33.60849 | -115.61425 | 36671 ft | 443 kts | 71° |
| 2026-04-20 18:46 | 33.61596 | -115.57853 | 36796 ft | 441 kts | 84° |
| 2026-04-20 18:46 | 33.61684 | -115.54191 | 36959 ft | 438 kts | 92° |
| 2026-04-20 18:47 | 33.61510 | -115.46854 | 36995 ft | 443 kts | 92° |
| 2026-04-20 18:47 | 33.61323 | -115.39433 | 36995 ft | 448 kts | 92° |
| 2026-04-20 18:48 | 33.61130 | -115.31923 | 36994 ft | 453 kts | 92° |
| 2026-04-20 18:48 | 33.60938 | -115.24338 | 36991 ft | 457 kts | 92° |
| 2026-04-20 18:49 | 33.60744 | -115.16673 | 36984 ft | 462 kts | 92° |
| 2026-04-20 18:49 | 33.60536 | -115.08944 | 36989 ft | 465 kts | 92° |
| 2026-04-20 18:50 | 33.60319 | -115.01163 | 36999 ft | 468 kts | 92° |
| 2026-04-20 18:50 | 33.60109 | -114.93384 | 36998 ft | 471 kts | 92° |
| 2026-04-20 18:51 | 33.59887 | -114.85515 | 37007 ft | 473 kts | 92° |
| 2026-04-20 18:51 | 33.59635 | -114.77562 | 37005 ft | 475 kts | 95° |
| 2026-04-20 18:52 | 33.58415 | -114.69776 | 37010 ft | 475 kts | 103° |
| 2026-04-20 18:52 | 33.56949 | -114.62037 | 37007 ft | 477 kts | 103° |
| 2026-04-20 18:53 | 33.55491 | -114.54319 | 36998 ft | 478 kts | 103° |
| 2026-04-20 18:53 | 33.54019 | -114.46541 | 36976 ft | 479 kts | 103° |
| 2026-04-20 18:54 | 33.52539 | -114.38748 | 36961 ft | 480 kts | 103° |
| 2026-04-20 18:54 | 33.51053 | -114.30953 | 36961 ft | 480 kts | 103° |
| 2026-04-20 18:55 | 33.49554 | -114.23144 | 36974 ft | 480 kts | 103° |
| 2026-04-20 18:55 | 33.48045 | -114.15351 | 36968 ft | 481 kts | 103° |
| 2026-04-20 18:56 | 33.46535 | -114.07550 | 36982 ft | 481 kts | 103° |
| 2026-04-20 18:56 | 33.45024 | -113.99749 | 36971 ft | 481 kts | 103° |
| 2026-04-20 18:57 | 33.43507 | -113.91944 | 36985 ft | 481 kts | 103° |
| 2026-04-20 18:57 | 33.41983 | -113.84136 | 36983 ft | 482 kts | 103° |
| 2026-04-20 18:58 | 33.40451 | -113.76327 | 36994 ft | 482 kts | 103° |
| 2026-04-20 18:58 | 33.38789 | -113.68570 | 36985 ft | 482 kts | 107° |
| 2026-04-20 18:59 | 33.36708 | -113.60999 | 36984 ft | 482 kts | 109° |
| 2026-04-20 18:59 | 33.34464 | -113.53421 | 36975 ft | 483 kts | 109° |
| 2026-04-20 19:00 | 33.32299 | -113.45823 | 36982 ft | 483 kts | 108° |
| 2026-04-20 19:00 | 33.30201 | -113.38184 | 36990 ft | 483 kts | 108° |
| 2026-04-20 19:01 | 33.28102 | -113.30546 | 36990 ft | 484 kts | 108° |
| 2026-04-20 19:01 | 33.25980 | -113.22915 | 36993 ft | 484 kts | 108° |
| 2026-04-20 19:02 | 33.23843 | -113.15284 | 36975 ft | 485 kts | 108° |
| 2026-04-20 19:02 | 33.21697 | -113.07651 | 36970 ft | 486 kts | 108° |
| 2026-04-20 19:03 | 33.19548 | -113.00000 | 36971 ft | 486 kts | 108° |
| 2026-04-20 19:03 | 33.17399 | -112.92334 | 36979 ft | 487 kts | 108° |
| 2026-04-20 19:04 | 33.15244 | -112.84711 | 36986 ft | 488 kts | 108° |
| 2026-04-20 19:04 | 33.13060 | -112.77043 | 36989 ft | 488 kts | 108° |
| 2026-04-20 19:05 | 33.10878 | -112.69372 | 36981 ft | 489 kts | 108° |
| 2026-04-20 19:05 | 33.08695 | -112.61682 | 36962 ft | 489 kts | 108° |
| 2026-04-20 19:06 | 33.06504 | -112.53991 | 36957 ft | 490 kts | 108° |
| 2026-04-20 19:06 | 33.04323 | -112.46285 | 36980 ft | 491 kts | 108° |
| 2026-04-20 19:07 | 33.02202 | -112.38530 | 36977 ft | 492 kts | 107° |
| 2026-04-20 19:07 | 33.00098 | -112.30773 | 36973 ft | 493 kts | 107° |
| 2026-04-20 19:08 | 32.96901 | -112.19135 | 36989 ft | 493 kts | 107° |
| 2026-04-20 19:09 | 32.94749 | -112.11377 | 36999 ft | 494 kts | 107° |
| 2026-04-20 19:09 | 32.92586 | -112.03602 | 37009 ft | 495 kts | 107° |
| 2026-04-20 19:10 | 32.90419 | -111.95813 | 37018 ft | 496 kts | 107° |
| 2026-04-20 19:10 | 32.88248 | -111.88019 | 37028 ft | 497 kts | 107° |
| 2026-04-20 19:11 | 32.86078 | -111.80268 | 37039 ft | 497 kts | 107° |
| 2026-04-20 19:11 | 32.83889 | -111.72460 | 37051 ft | 497 kts | 107° |
| 2026-04-20 19:12 | 32.81693 | -111.64655 | 37045 ft | 498 kts | 107° |
| 2026-04-20 19:12 | 32.79494 | -111.56859 | 37006 ft | 498 kts | 108° |
| 2026-04-20 19:13 | 32.77286 | -111.49040 | 37015 ft | 499 kts | 108° |
| 2026-04-20 19:13 | 32.75069 | -111.41210 | 37026 ft | 500 kts | 108° |
| 2026-04-20 19:14 | 32.72835 | -111.33385 | 37038 ft | 500 kts | 108° |
| 2026-04-20 19:14 | 32.70603 | -111.25556 | 37043 ft | 501 kts | 108° |
| 2026-04-20 19:15 | 32.68367 | -111.17715 | 37043 ft | 501 kts | 108° |
| 2026-04-20 19:15 | 32.66122 | -111.09876 | 37062 ft | 501 kts | 108° |
| 2026-04-20 19:16 | 32.63871 | -111.02039 | 37035 ft | 502 kts | 108° |
| 2026-04-20 19:16 | 32.61603 | -110.94183 | 37039 ft | 503 kts | 108° |
| 2026-04-20 19:17 | 32.59349 | -110.86372 | 37036 ft | 504 kts | 108° |
| 2026-04-20 19:17 | 32.57072 | -110.78509 | 37055 ft | 504 kts | 109° |
| 2026-04-20 19:18 | 32.54785 | -110.70632 | 37063 ft | 504 kts | 109° |
| 2026-04-20 19:18 | 32.52496 | -110.62777 | 37064 ft | 504 kts | 109° |
| 2026-04-20 19:19 | 32.50201 | -110.54919 | 37061 ft | 504 kts | 109° |
| 2026-04-20 19:19 | 32.47910 | -110.47062 | 37054 ft | 505 kts | 109° |
| 2026-04-20 19:20 | 32.45995 | -110.40531 | 37060 ft | 505 kts | 109° |
| 2026-04-20 19:20 | 32.43302 | -110.31388 | 37061 ft | 506 kts | 109° |
| 2026-04-20 19:21 | 32.40981 | -110.23540 | 37053 ft | 506 kts | 109° |
| 2026-04-20 19:21 | 32.39035 | -110.16954 | 37054 ft | 506 kts | 109° |
| 2026-04-20 19:22 | 32.36708 | -110.09101 | 37061 ft | 506 kts | 110° |
| 2026-04-20 19:22 | 32.34369 | -110.01241 | 37032 ft | 506 kts | 110° |
| 2026-04-20 19:23 | 32.32048 | -109.93453 | 37012 ft | 506 kts | 110° |
| 2026-04-20 19:23 | 32.29731 | -109.85538 | 37001 ft | 507 kts | 105° |
| 2026-04-20 19:24 | 32.28540 | -109.77387 | 37007 ft | 507 kts | 98° |
| 2026-04-20 19:24 | 32.27549 | -109.69134 | 37013 ft | 507 kts | 98° |
| 2026-04-20 19:25 | 32.26537 | -109.60878 | 37009 ft | 508 kts | 98° |
| 2026-04-20 19:25 | 32.25525 | -109.52602 | 37018 ft | 508 kts | 98° |
| 2026-04-20 19:26 | 32.24516 | -109.44354 | 37020 ft | 508 kts | 98° |
| 2026-04-20 19:26 | 32.23496 | -109.36096 | 37028 ft | 507 kts | 99° |
| 2026-04-20 19:27 | 32.22478 | -109.27847 | 37017 ft | 507 kts | 99° |
| 2026-04-20 19:27 | 32.21451 | -109.19601 | 37023 ft | 507 kts | 99° |
| 2026-04-20 19:28 | 32.20419 | -109.11361 | 37022 ft | 507 kts | 99° |
| 2026-04-20 19:28 | 32.19383 | -109.03111 | 37000 ft | 508 kts | 99° |
| 2026-04-20 19:29 | 32.18347 | -108.94908 | 36984 ft | 510 kts | 99° |
| 2026-04-20 19:29 | 32.17297 | -108.86631 | 36978 ft | 510 kts | 99° |
| 2026-04-20 19:30 | 32.16235 | -108.78355 | 36981 ft | 510 kts | 99° |
| 2026-04-20 19:30 | 32.15699 | -108.74211 | 37098 ft | 510 kts | 100° |
| 2026-04-20 19:30 | 32.15163 | -108.70066 | 37101 ft | 510 kts | 100° |
| 2026-04-20 19:31 | 32.14096 | -108.61786 | 37090 ft | 510 kts | 100° |
| 2026-04-20 19:31 | 32.13025 | -108.53525 | 37066 ft | 510 kts | 100° |
| 2026-04-20 19:32 | 32.11945 | -108.45249 | 37035 ft | 510 kts | 100° |
| 2026-04-20 19:32 | 32.10871 | -108.37037 | 37008 ft | 509 kts | 100° |
| 2026-04-20 19:33 | 32.09779 | -108.28745 | 37004 ft | 509 kts | 100° |
| 2026-04-20 19:33 | 32.08684 | -108.20480 | 37004 ft | 509 kts | 100° |
| 2026-04-20 19:34 | 32.07592 | -108.12280 | 37007 ft | 509 kts | 101° |
| 2026-04-20 19:34 | 32.06486 | -108.04047 | 37009 ft | 509 kts | 101° |
| 2026-04-20 19:35 | 32.05374 | -107.95810 | 37010 ft | 509 kts | 101° |
| 2026-04-20 19:35 | 32.04259 | -107.87560 | 37015 ft | 509 kts | 101° |
| 2026-04-20 19:36 | 32.03140 | -107.79329 | 37089 ft | 509 kts | 101° |
| 2026-04-20 19:36 | 32.02018 | -107.71091 | 37084 ft | 509 kts | 101° |
| 2026-04-20 19:37 | 32.00894 | -107.62913 | 37074 ft | 509 kts | 101° |
| 2026-04-20 19:37 | 31.99765 | -107.54696 | 37046 ft | 509 kts | 101° |
| 2026-04-20 19:38 | 31.98615 | -107.46460 | 37018 ft | 509 kts | 101° |
| 2026-04-20 19:38 | 31.97465 | -107.38225 | 37007 ft | 509 kts | 101° |
| 2026-04-20 19:39 | 31.96320 | -107.30004 | 37010 ft | 509 kts | 101° |
| 2026-04-20 19:39 | 31.95159 | -107.21781 | 36998 ft | 509 kts | 101° |
| 2026-04-20 19:40 | 31.93992 | -107.13549 | 37002 ft | 509 kts | 102° |
| 2026-04-20 19:40 | 31.92823 | -107.05337 | 37004 ft | 510 kts | 101° |
| 2026-04-20 19:41 | 31.91649 | -106.97092 | 37010 ft | 510 kts | 102° |
| 2026-04-20 19:41 | 31.90472 | -106.88868 | 37002 ft | 510 kts | 102° |
| 2026-04-20 19:41 | 31.89886 | -106.84809 | 37158 ft | 509 kts | 102° |
| 2026-04-20 19:42 | 31.89294 | -106.80704 | 37160 ft | 510 kts | 102° |
| 2026-04-20 19:42 | 31.88105 | -106.72493 | 37178 ft | 509 kts | 102° |
| 2026-04-20 19:43 | 31.86912 | -106.64278 | 37189 ft | 509 kts | 102° |
| 2026-04-20 19:43 | 31.85703 | -106.56077 | 37175 ft | 509 kts | 102° |
| 2026-04-20 19:44 | 31.84492 | -106.47859 | 37200 ft | 509 kts | 102° |
| 2026-04-20 19:44 | 31.83287 | -106.39644 | 37198 ft | 509 kts | 102° |
| 2026-04-20 19:45 | 31.82074 | -106.31443 | 37150 ft | 509 kts | 102° |
| 2026-04-20 19:45 | 31.80827 | -106.23253 | 37143 ft | 509 kts | 103° |
| 2026-04-20 19:46 | 31.79494 | -106.15077 | 37108 ft | 510 kts | 104° |
| 2026-04-20 19:46 | 31.78133 | -106.06891 | 37068 ft | 510 kts | 104° |
| 2026-04-20 19:47 | 31.76786 | -105.98694 | 37032 ft | 511 kts | 103° |
| 2026-04-20 19:47 | 31.75456 | -105.90554 | 37037 ft | 511 kts | 103° |
| 2026-04-20 19:48 | 31.74121 | -105.82351 | 37032 ft | 511 kts | 103° |
| 2026-04-20 19:48 | 31.72772 | -105.74160 | 37042 ft | 511 kts | 104° |
| 2026-04-20 19:49 | 31.71407 | -105.65959 | 37040 ft | 511 kts | 104° |
| 2026-04-20 19:49 | 31.70041 | -105.57776 | 37045 ft | 511 kts | 104° |
| 2026-04-20 19:50 | 31.68672 | -105.49598 | 37043 ft | 510 kts | 104° |
| 2026-04-20 19:50 | 31.67298 | -105.41429 | 37033 ft | 510 kts | 104° |
| 2026-04-20 19:51 | 31.65920 | -105.33258 | 37043 ft | 510 kts | 104° |
| 2026-04-20 19:51 | 31.64539 | -105.25087 | 37043 ft | 511 kts | 104° |
| 2026-04-20 19:52 | 31.63149 | -105.16899 | 37053 ft | 511 kts | 104° |
| 2026-04-20 19:52 | 31.61751 | -105.08714 | 37053 ft | 511 kts | 104° |
| 2026-04-20 19:53 | 31.60341 | -105.00539 | 37065 ft | 512 kts | 104° |
| 2026-04-20 19:53 | 31.58929 | -104.92356 | 37077 ft | 512 kts | 104° |
| 2026-04-20 19:54 | 31.57530 | -104.84221 | 37080 ft | 512 kts | 104° |
| 2026-04-20 19:54 | 31.56120 | -104.76039 | 37083 ft | 512 kts | 104° |
| 2026-04-20 19:55 | 31.54690 | -104.67846 | 37085 ft | 513 kts | 104° |
| 2026-04-20 19:55 | 31.53240 | -104.59643 | 37096 ft | 513 kts | 104° |
| 2026-04-20 19:56 | 31.52036 | -104.52806 | 37092 ft | 513 kts | 104° |
| 2026-04-20 19:56 | 31.50360 | -104.43288 | 37102 ft | 513 kts | 105° |
| 2026-04-20 19:57 | 31.48914 | -104.35096 | 37112 ft | 513 kts | 105° |
| 2026-04-20 19:57 | 31.47467 | -104.26894 | 37110 ft | 514 kts | 105° |
| 2026-04-20 19:58 | 31.46001 | -104.18699 | 37110 ft | 514 kts | 105° |
| 2026-04-20 19:58 | 31.44527 | -104.10509 | 37117 ft | 514 kts | 105° |
| 2026-04-20 19:59 | 31.43063 | -104.02367 | 37121 ft | 514 kts | 105° |
| 2026-04-20 19:59 | 31.41591 | -103.94171 | 37119 ft | 514 kts | 105° |
| 2026-04-20 20:00 | 31.40115 | -103.85992 | 37135 ft | 514 kts | 105° |
| 2026-04-20 20:00 | 31.38620 | -103.77803 | 37152 ft | 514 kts | 105° |
| 2026-04-20 20:01 | 31.37118 | -103.69613 | 37175 ft | 515 kts | 105° |
| 2026-04-20 20:01 | 31.35621 | -103.61411 | 37172 ft | 515 kts | 105° |
| 2026-04-20 20:02 | 31.34121 | -103.53212 | 37161 ft | 515 kts | 105° |
| 2026-04-20 20:02 | 31.32611 | -103.45037 | 37165 ft | 515 kts | 105° |
| 2026-04-20 20:03 | 31.31093 | -103.36840 | 37160 ft | 515 kts | 105° |
| 2026-04-20 20:03 | 31.29582 | -103.28705 | 37147 ft | 515 kts | 105° |
| 2026-04-20 20:04 | 31.28047 | -103.20510 | 37138 ft | 515 kts | 105° |
| 2026-04-20 20:04 | 31.26508 | -103.12341 | 37108 ft | 516 kts | 105° |
| 2026-04-20 20:05 | 31.24968 | -103.04140 | 37125 ft | 516 kts | 105° |
| 2026-04-20 20:05 | 31.23428 | -102.95957 | 37127 ft | 516 kts | 105° |
| 2026-04-20 20:06 | 31.21875 | -102.87776 | 37135 ft | 516 kts | 106° |
| 2026-04-20 20:06 | 31.20330 | -102.79640 | 37132 ft | 516 kts | 105° |
| 2026-04-20 20:07 | 31.18775 | -102.71455 | 37142 ft | 516 kts | 106° |
| 2026-04-20 20:07 | 31.17209 | -102.63276 | 37126 ft | 516 kts | 106° |
| 2026-04-20 20:08 | 31.15889 | -102.56419 | 37157 ft | 516 kts | 106° |
| 2026-04-20 20:08 | 31.14311 | -102.48242 | 37158 ft | 517 kts | 106° |
| 2026-04-20 20:09 | 31.12722 | -102.40051 | 37172 ft | 517 kts | 106° |
| 2026-04-20 20:09 | 31.11131 | -102.31865 | 37186 ft | 518 kts | 106° |
| 2026-04-20 20:10 | 31.09551 | -102.23729 | 37188 ft | 518 kts | 106° |
| 2026-04-20 20:10 | 31.07948 | -102.15528 | 37200 ft | 518 kts | 106° |
| 2026-04-20 20:11 | 31.06333 | -102.07337 | 37202 ft | 518 kts | 107° |
| 2026-04-20 20:11 | 31.04719 | -101.99130 | 37209 ft | 518 kts | 107° |
| 2026-04-20 20:12 | 31.03103 | -101.90938 | 37210 ft | 519 kts | 107° |
| 2026-04-20 20:12 | 31.01485 | -101.82752 | 37218 ft | 519 kts | 107° |
| 2026-04-20 20:13 | 30.99032 | -101.70469 | 37229 ft | 518 kts | 107° |
| 2026-04-20 20:13 | 30.97383 | -101.62265 | 37226 ft | 519 kts | 107° |
| 2026-04-20 20:14 | 30.95747 | -101.54103 | 37232 ft | 519 kts | 107° |
| 2026-04-20 20:14 | 30.94097 | -101.45910 | 37263 ft | 518 kts | 107° |
| 2026-04-20 20:15 | 30.92453 | -101.37776 | 37266 ft | 519 kts | 107° |
| 2026-04-20 20:15 | 30.90795 | -101.29606 | 37265 ft | 519 kts | 107° |
| 2026-04-20 20:16 | 30.89129 | -101.21422 | 37294 ft | 520 kts | 107° |
| 2026-04-20 20:16 | 30.87452 | -101.13225 | 37289 ft | 521 kts | 107° |
| 2026-04-20 20:17 | 30.85769 | -101.05027 | 37278 ft | 521 kts | 107° |
| 2026-04-20 20:17 | 30.84085 | -100.96816 | 37275 ft | 521 kts | 107° |
| 2026-04-20 20:18 | 30.82398 | -100.88623 | 37266 ft | 521 kts | 107° |
| 2026-04-20 20:18 | 30.80700 | -100.80427 | 37290 ft | 521 kts | 107° |
| 2026-04-20 20:19 | 30.78988 | -100.72216 | 37283 ft | 522 kts | 107° |
| 2026-04-20 20:19 | 30.77271 | -100.64014 | 37297 ft | 522 kts | 107° |
| 2026-04-20 20:20 | 30.75559 | -100.55813 | 37288 ft | 521 kts | 107° |
| 2026-04-20 20:20 | 30.73853 | -100.47670 | 37288 ft | 521 kts | 107° |
| 2026-04-20 20:21 | 30.72136 | -100.39495 | 37286 ft | 521 kts | 107° |
| 2026-04-20 20:21 | 30.70402 | -100.31319 | 37280 ft | 522 kts | 108° |
| 2026-04-20 20:22 | 30.68660 | -100.23118 | 37274 ft | 522 kts | 107° |
| 2026-04-20 20:22 | 30.66920 | -100.14942 | 37284 ft | 521 kts | 107° |
| 2026-04-20 20:23 | 30.65176 | -100.06769 | 37294 ft | 521 kts | 107° |
| 2026-04-20 20:23 | 30.63422 | -99.98602 | 37297 ft | 521 kts | 107° |
| 2026-04-20 20:24 | 30.61669 | -99.90434 | 37298 ft | 521 kts | 107° |
| 2026-04-20 20:24 | 30.59922 | -99.82263 | 37288 ft | 522 kts | 104° |
| 2026-04-20 20:25 | 30.58821 | -99.73969 | 37276 ft | 524 kts | 101° |
| 2026-04-20 20:25 | 30.57766 | -99.65600 | 37281 ft | 524 kts | 101° |
| 2026-04-20 20:26 | 30.56699 | -99.57229 | 37271 ft | 524 kts | 101° |
| 2026-04-20 20:26 | 30.55624 | -99.48854 | 37268 ft | 525 kts | 101° |
| 2026-04-20 20:27 | 30.54549 | -99.40461 | 37267 ft | 525 kts | 101° |
| 2026-04-20 20:27 | 30.53469 | -99.32082 | 37277 ft | 526 kts | 101° |
| 2026-04-20 20:28 | 30.52384 | -99.23734 | 37282 ft | 525 kts | 101° |
| 2026-04-20 20:28 | 30.51295 | -99.15358 | 37289 ft | 526 kts | 101° |
| 2026-04-20 20:29 | 30.50200 | -99.06986 | 37287 ft | 525 kts | 101° |
| 2026-04-20 20:29 | 30.49090 | -98.98596 | 37282 ft | 525 kts | 101° |
| 2026-04-20 20:30 | 30.47980 | -98.90230 | 37289 ft | 525 kts | 101° |
| 2026-04-20 20:30 | 30.46869 | -98.81860 | 37288 ft | 525 kts | 101° |
| 2026-04-20 20:31 | 30.45756 | -98.73507 | 37292 ft | 525 kts | 101° |
| 2026-04-20 20:31 | 30.44626 | -98.65136 | 37287 ft | 525 kts | 101° |
| 2026-04-20 20:32 | 30.43507 | -98.56826 | 37282 ft | 525 kts | 101° |
| 2026-04-20 20:32 | 30.42371 | -98.48458 | 37283 ft | 526 kts | 101° |
| 2026-04-20 20:33 | 30.41218 | -98.40086 | 37342 ft | 527 kts | 101° |
| 2026-04-20 20:33 | 30.40073 | -98.31723 | 37338 ft | 526 kts | 101° |
| 2026-04-20 20:34 | 30.38927 | -98.23334 | 37325 ft | 526 kts | 101° |
| 2026-04-20 20:34 | 30.37773 | -98.14969 | 37328 ft | 526 kts | 101° |
| 2026-04-20 20:35 | 30.36607 | -98.06592 | 37344 ft | 526 kts | 101° |
| 2026-04-20 20:35 | 30.35446 | -97.98240 | 37343 ft | 526 kts | 101° |
| 2026-04-20 20:36 | 30.34265 | -97.89870 | 37337 ft | 526 kts | 102° |
| 2026-04-20 20:36 | 30.33078 | -97.81501 | 37330 ft | 527 kts | 102° |
| 2026-04-20 20:37 | 30.31891 | -97.73133 | 37305 ft | 527 kts | 102° |
| 2026-04-20 20:37 | 30.30699 | -97.64767 | 37303 ft | 527 kts | 102° |
| 2026-04-20 20:38 | 30.29499 | -97.56388 | 37307 ft | 527 kts | 102° |
| 2026-04-20 20:38 | 30.28294 | -97.48015 | 37286 ft | 529 kts | 102° |
| 2026-04-20 20:39 | 30.27084 | -97.39614 | 37282 ft | 529 kts | 102° |
| 2026-04-20 20:39 | 30.25870 | -97.31273 | 37285 ft | 529 kts | 102° |
| 2026-04-20 20:40 | 30.24646 | -97.22874 | 37268 ft | 529 kts | 102° |
| 2026-04-20 20:40 | 30.23420 | -97.14485 | 37327 ft | 529 kts | 102° |
| 2026-04-20 20:41 | 30.22182 | -97.06103 | 37345 ft | 529 kts | 102° |
| 2026-04-20 20:41 | 30.20939 | -96.97722 | 37324 ft | 529 kts | 102° |
| 2026-04-20 20:42 | 30.19698 | -96.89342 | 37338 ft | 528 kts | 102° |
| 2026-04-20 20:42 | 30.18453 | -96.80998 | 37305 ft | 528 kts | 102° |
| 2026-04-20 20:43 | 30.17196 | -96.72628 | 37258 ft | 528 kts | 102° |
| 2026-04-20 20:43 | 30.15939 | -96.64273 | 37194 ft | 528 kts | 102° |
| 2026-04-20 20:44 | 30.14671 | -96.55907 | 37152 ft | 529 kts | 102° |
| 2026-04-20 20:44 | 30.13397 | -96.47537 | 37126 ft | 528 kts | 102° |
| 2026-04-20 20:45 | 30.12123 | -96.39169 | 37136 ft | 529 kts | 102° |
| 2026-04-20 20:45 | 30.10847 | -96.30804 | 37110 ft | 529 kts | 102° |
| 2026-04-20 20:46 | 30.09567 | -96.22450 | 37104 ft | 529 kts | 102° |
| 2026-04-20 20:46 | 30.08269 | -96.14085 | 37110 ft | 529 kts | 102° |
| 2026-04-20 20:47 | 30.06965 | -96.05725 | 37164 ft | 529 kts | 103° |
| 2026-04-20 20:47 | 30.05658 | -95.97357 | 37187 ft | 530 kts | 103° |
| 2026-04-20 20:48 | 30.04348 | -95.88983 | 37224 ft | 531 kts | 103° |
| 2026-04-20 20:48 | 30.03035 | -95.80654 | 37231 ft | 531 kts | 103° |
| 2026-04-20 20:49 | 30.01712 | -95.72276 | 37258 ft | 531 kts | 103° |
| 2026-04-20 20:49 | 30.00406 | -95.64008 | 37254 ft | 514 kts | 103° |
| 2026-04-20 20:50 | 29.99120 | -95.55945 | 37293 ft | 507 kts | 103° |
| 2026-04-20 20:50 | 29.97839 | -95.47939 | 37301 ft | 508 kts | 103° |
| 2026-04-20 20:51 | 29.96554 | -95.39945 | 37307 ft | 500 kts | 103° |
| 2026-04-20 20:51 | 29.95292 | -95.32029 | 37313 ft | 506 kts | 102° |
| 2026-04-20 20:52 | 29.94218 | -95.23939 | 37302 ft | 514 kts | 100° |
| 2026-04-20 20:52 | 29.93241 | -95.15766 | 37300 ft | 519 kts | 100° |
| 2026-04-20 20:53 | 29.92208 | -95.07490 | 37295 ft | 523 kts | 101° |
| 2026-04-20 20:53 | 29.91110 | -94.99172 | 37288 ft | 526 kts | 101° |
| 2026-04-20 20:54 | 29.90180 | -94.92221 | 37287 ft | 528 kts | 101° |
| 2026-04-20 20:54 | 29.89069 | -94.83835 | 37291 ft | 531 kts | 101° |
| 2026-04-20 20:55 | 29.87956 | -94.75414 | 37290 ft | 532 kts | 101° |
| 2026-04-20 20:55 | 29.86832 | -94.66971 | 37290 ft | 533 kts | 101° |
| 2026-04-20 20:56 | 29.85697 | -94.58522 | 37290 ft | 534 kts | 101° |
| 2026-04-20 20:56 | 29.84559 | -94.50062 | 37291 ft | 535 kts | 101° |
| 2026-04-20 20:57 | 29.83418 | -94.41594 | 37292 ft | 536 kts | 101° |
| 2026-04-20 20:57 | 29.82282 | -94.33160 | 37288 ft | 536 kts | 101° |
| 2026-04-20 20:58 | 29.81123 | -94.24678 | 37284 ft | 536 kts | 101° |
| 2026-04-20 20:58 | 29.79945 | -94.16193 | 37283 ft | 536 kts | 101° |
| 2026-04-20 20:59 | 29.78770 | -94.07702 | 37280 ft | 537 kts | 101° |
| 2026-04-20 20:59 | 29.77593 | -93.99207 | 37280 ft | 537 kts | 101° |
| 2026-04-20 21:00 | 29.76411 | -93.90711 | 37258 ft | 537 kts | 101° |
| 2026-04-20 21:00 | 29.75231 | -93.82273 | 37271 ft | 537 kts | 101° |
| 2026-04-20 21:01 | 29.74032 | -93.73766 | 37291 ft | 537 kts | 101° |
| 2026-04-20 21:01 | 29.72825 | -93.65278 | 37293 ft | 538 kts | 101° |
| 2026-04-20 21:02 | 29.71617 | -93.56791 | 37295 ft | 538 kts | 101° |
| 2026-04-20 21:02 | 29.70415 | -93.48292 | 37302 ft | 538 kts | 101° |
| 2026-04-20 21:03 | 29.69200 | -93.39809 | 37301 ft | 538 kts | 101° |
| 2026-04-20 21:03 | 29.67976 | -93.31313 | 37304 ft | 538 kts | 101° |
| 2026-04-20 21:04 | 29.66746 | -93.22828 | 37300 ft | 538 kts | 101° |
| 2026-04-20 21:04 | 29.65516 | -93.14336 | 37301 ft | 538 kts | 102° |
| 2026-04-20 21:05 | 29.64277 | -93.05856 | 37302 ft | 538 kts | 102° |
| 2026-04-20 21:05 | 29.63030 | -92.97371 | 37300 ft | 538 kts | 102° |
| 2026-04-20 21:06 | 29.61778 | -92.88880 | 37294 ft | 539 kts | 102° |
| 2026-04-20 21:06 | 29.60523 | -92.80393 | 37295 ft | 539 kts | 102° |
| 2026-04-20 21:07 | 29.59265 | -92.71885 | 37295 ft | 539 kts | 102° |
| 2026-04-20 21:07 | 29.58005 | -92.63442 | 37298 ft | 539 kts | 102° |
| 2026-04-20 21:08 | 29.56717 | -92.54960 | 37285 ft | 540 kts | 102° |
| 2026-04-20 21:08 | 29.55423 | -92.46467 | 37285 ft | 540 kts | 102° |
| 2026-04-20 21:09 | 29.54140 | -92.37978 | 37281 ft | 540 kts | 102° |
| 2026-04-20 21:09 | 29.52853 | -92.29478 | 37283 ft | 540 kts | 102° |
| 2026-04-20 21:10 | 29.51551 | -92.20964 | 37262 ft | 540 kts | 102° |
| 2026-04-20 21:10 | 29.50249 | -92.12470 | 37273 ft | 540 kts | 102° |
| 2026-04-20 21:11 | 29.48941 | -92.03971 | 37279 ft | 540 kts | 102° |
| 2026-04-20 21:11 | 29.47620 | -91.95485 | 37280 ft | 540 kts | 102° |
| 2026-04-20 21:12 | 29.46305 | -91.87042 | 37278 ft | 541 kts | 102° |
| 2026-04-20 21:12 | 29.44981 | -91.78539 | 37282 ft | 541 kts | 102° |
| 2026-04-20 21:13 | 29.43644 | -91.70038 | 37276 ft | 542 kts | 102° |
| 2026-04-20 21:13 | 29.42308 | -91.61537 | 37277 ft | 542 kts | 102° |
| 2026-04-20 21:14 | 29.40967 | -91.53012 | 37280 ft | 542 kts | 102° |
| 2026-04-20 21:14 | 29.39617 | -91.44517 | 37276 ft | 543 kts | 102° |
| 2026-04-20 21:15 | 29.38248 | -91.36002 | 37270 ft | 543 kts | 102° |
| 2026-04-20 21:15 | 29.36883 | -91.27531 | 37272 ft | 543 kts | 102° |
| 2026-04-20 21:16 | 29.35509 | -91.18987 | 37271 ft | 543 kts | 102° |
| 2026-04-20 21:16 | 29.34140 | -91.10462 | 37277 ft | 544 kts | 102° |
| 2026-04-20 21:17 | 29.32758 | -91.01926 | 37274 ft | 544 kts | 102° |
| 2026-04-20 21:17 | 29.31358 | -90.93377 | 37273 ft | 545 kts | 103° |
| 2026-04-20 21:18 | 29.29950 | -90.84850 | 37282 ft | 545 kts | 102° |
| 2026-04-20 21:18 | 29.28563 | -90.76383 | 37285 ft | 545 kts | 102° |
| 2026-04-20 21:19 | 29.27159 | -90.67839 | 37281 ft | 546 kts | 103° |
| 2026-04-20 21:20 | 29.25027 | -90.55038 | 37289 ft | 546 kts | 103° |
| 2026-04-20 21:20 | 29.23600 | -90.46490 | 37275 ft | 546 kts | 103° |
| 2026-04-20 21:21 | 29.22170 | -90.37938 | 37293 ft | 546 kts | 103° |
| 2026-04-20 21:21 | 29.20735 | -90.29401 | 37288 ft | 547 kts | 103° |
| 2026-04-20 21:22 | 29.19288 | -90.20838 | 37282 ft | 548 kts | 103° |
| 2026-04-20 21:22 | 29.17831 | -90.12285 | 37280 ft | 548 kts | 103° |
| 2026-04-20 21:23 | 29.16285 | -90.03744 | 37277 ft | 548 kts | 105° |
| 2026-04-20 21:23 | 29.14516 | -89.95265 | 37284 ft | 548 kts | 106° |
| 2026-04-20 21:24 | 29.12694 | -89.86781 | 37268 ft | 549 kts | 106° |
| 2026-04-20 21:24 | 29.10942 | -89.78342 | 37268 ft | 550 kts | 105° |
| 2026-04-20 21:25 | 29.09215 | -89.69811 | 37272 ft | 550 kts | 105° |
| 2026-04-20 21:25 | 29.07475 | -89.61277 | 37275 ft | 550 kts | 105° |
| 2026-04-20 21:26 | 29.05712 | -89.52783 | 37280 ft | 550 kts | 106° |
| 2026-04-20 21:26 | 29.03935 | -89.44274 | 37283 ft | 550 kts | 106° |
| 2026-04-20 21:27 | 29.02155 | -89.35761 | 37283 ft | 551 kts | 106° |
| 2026-04-20 21:27 | 29.00381 | -89.27260 | 37281 ft | 551 kts | 106° |
| 2026-04-20 21:28 | 28.98594 | -89.18728 | 37292 ft | 551 kts | 106° |
| 2026-04-20 21:28 | 28.96813 | -89.10264 | 37282 ft | 552 kts | 106° |
| 2026-04-20 21:29 | 28.95018 | -89.01742 | 37260 ft | 552 kts | 105° |
| 2026-04-20 21:29 | 28.93208 | -88.93218 | 37279 ft | 552 kts | 105° |
| 2026-04-20 21:30 | 28.91389 | -88.84694 | 37292 ft | 552 kts | 105° |
| 2026-04-20 21:30 | 28.89568 | -88.76160 | 37287 ft | 553 kts | 105° |
| 2026-04-20 21:31 | 28.87704 | -88.67656 | 37286 ft | 553 kts | 107° |
| 2026-04-20 21:31 | 28.85483 | -88.59301 | 37283 ft | 552 kts | 110° |
| 2026-04-20 21:32 | 28.83032 | -88.51012 | 37281 ft | 552 kts | 111° |
| 2026-04-20 21:32 | 28.80628 | -88.42678 | 37291 ft | 553 kts | 109° |
| 2026-04-20 21:33 | 28.78316 | -88.34327 | 37282 ft | 554 kts | 109° |
| 2026-04-20 21:33 | 28.76013 | -88.25946 | 37275 ft | 554 kts | 109° |
| 2026-04-20 21:34 | 28.73687 | -88.17589 | 37277 ft | 554 kts | 109° |
| 2026-04-20 21:34 | 28.71315 | -88.09207 | 37278 ft | 554 kts | 110° |
| 2026-04-20 21:35 | 28.68943 | -88.00845 | 37278 ft | 555 kts | 109° |
| 2026-04-20 21:35 | 28.66577 | -87.92454 | 37275 ft | 555 kts | 109° |
| 2026-04-20 21:36 | 28.64219 | -87.84101 | 37240 ft | 555 kts | 109° |
| 2026-04-20 21:36 | 28.61864 | -87.75789 | 37264 ft | 555 kts | 109° |
| 2026-04-20 21:37 | 28.59462 | -87.67370 | 37276 ft | 556 kts | 109° |
| 2026-04-20 21:37 | 28.57086 | -87.59051 | 37274 ft | 556 kts | 109° |
| 2026-04-20 21:38 | 28.54699 | -87.50682 | 37269 ft | 556 kts | 109° |
| 2026-04-20 21:38 | 28.52293 | -87.42316 | 37270 ft | 556 kts | 109° |
| 2026-04-20 21:39 | 28.49886 | -87.33954 | 37266 ft | 556 kts | 109° |
| 2026-04-20 21:39 | 28.47886 | -87.26996 | 37267 ft | 557 kts | 109° |
| 2026-04-20 21:40 | 28.45483 | -87.18637 | 37264 ft | 557 kts | 109° |
| 2026-04-20 21:40 | 28.43063 | -87.10286 | 37268 ft | 557 kts | 109° |
| 2026-04-20 21:41 | 28.40627 | -87.01939 | 37269 ft | 557 kts | 109° |
| 2026-04-20 21:41 | 28.38190 | -86.93579 | 37259 ft | 557 kts | 109° |
| 2026-04-20 21:42 | 28.35758 | -86.85232 | 37261 ft | 557 kts | 109° |
| 2026-04-20 21:42 | 28.33316 | -86.76883 | 37261 ft | 557 kts | 109° |
| 2026-04-20 21:43 | 28.30867 | -86.68540 | 37249 ft | 557 kts | 109° |
| 2026-04-20 21:43 | 28.28425 | -86.60208 | 37259 ft | 556 kts | 109° |
| 2026-04-20 21:44 | 28.25992 | -86.51867 | 37261 ft | 556 kts | 109° |
| 2026-04-20 21:44 | 28.23563 | -86.43515 | 37253 ft | 556 kts | 109° |
| 2026-04-20 21:45 | 28.21112 | -86.35194 | 37252 ft | 556 kts | 109° |
| 2026-04-20 21:45 | 28.18661 | -86.26899 | 37252 ft | 556 kts | 109° |
| 2026-04-20 21:46 | 28.16206 | -86.18573 | 37254 ft | 556 kts | 109° |
| 2026-04-20 21:46 | 28.13755 | -86.10254 | 37249 ft | 556 kts | 109° |
| 2026-04-20 21:47 | 28.11289 | -86.01930 | 37248 ft | 557 kts | 109° |
| 2026-04-20 21:47 | 28.08826 | -85.93675 | 37247 ft | 557 kts | 110° |
| 2026-04-20 21:48 | 28.06338 | -85.85360 | 37243 ft | 557 kts | 110° |
| 2026-04-20 21:48 | 28.03861 | -85.77035 | 37244 ft | 557 kts | 109° |
| 2026-04-20 21:49 | 28.01379 | -85.68734 | 37242 ft | 557 kts | 110° |
| 2026-04-20 21:49 | 27.98870 | -85.60436 | 37208 ft | 556 kts | 110° |
| 2026-04-20 21:50 | 27.96379 | -85.52167 | 37242 ft | 555 kts | 110° |
| 2026-04-20 21:50 | 27.93911 | -85.43970 | 37230 ft | 554 kts | 110° |
| 2026-04-20 21:51 | 27.91413 | -85.35724 | 37234 ft | 553 kts | 110° |
| 2026-04-20 21:51 | 27.88919 | -85.27506 | 37233 ft | 553 kts | 109° |
| 2026-04-20 21:52 | 27.87261 | -85.19020 | 37225 ft | 553 kts | 101° |
| 2026-04-20 21:52 | 27.85845 | -85.10476 | 37219 ft | 553 kts | 101° |
| 2026-04-20 21:53 | 27.84410 | -85.01918 | 37227 ft | 553 kts | 101° |
| 2026-04-20 21:53 | 27.82961 | -84.93392 | 37215 ft | 553 kts | 101° |
| 2026-04-20 21:53 | 27.82233 | -84.89124 | 37037 ft | 552 kts | 101° |
| 2026-04-20 21:54 | 27.81569 | -84.84870 | 36158 ft | 551 kts | 96° |
| 2026-04-20 21:54 | 27.81361 | -84.80542 | 35213 ft | 551 kts | 87° |
| 2026-04-20 21:54 | 27.81559 | -84.76278 | 34259 ft | 552 kts | 85° |
| 2026-04-20 21:54 | 27.81785 | -84.71885 | 33111 ft | 553 kts | 85° |
| 2026-04-20 21:55 | 27.81997 | -84.67632 | 32080 ft | 552 kts | 85° |
| 2026-04-20 21:55 | 27.82208 | -84.63293 | 30992 ft | 550 kts | 85° |
| 2026-04-20 21:55 | 27.82414 | -84.58980 | 29839 ft | 549 kts | 85° |
| 2026-04-20 21:55 | 27.82614 | -84.54685 | 28509 ft | 547 kts | 86° |
| 2026-04-20 21:56 | 27.82807 | -84.50409 | 27270 ft | 546 kts | 86° |
| 2026-04-20 21:56 | 27.82999 | -84.46128 | 26672 ft | 547 kts | 86° |
| 2026-04-20 21:56 | 27.83196 | -84.41831 | 26393 ft | 548 kts | 86° |
| 2026-04-20 21:56 | 27.83396 | -84.37518 | 26163 ft | 548 kts | 86° |
| 2026-04-20 21:57 | 27.83593 | -84.33217 | 26197 ft | 547 kts | 86° |
| 2026-04-20 21:57 | 27.83784 | -84.28938 | 26191 ft | 547 kts | 86° |
| 2026-04-20 21:57 | 27.83977 | -84.24622 | 26193 ft | 547 kts | 86° |
| 2026-04-20 21:57 | 27.84167 | -84.20333 | 26190 ft | 547 kts | 86° |
| 2026-04-20 21:58 | 27.84357 | -84.16040 | 26190 ft | 546 kts | 86° |
| 2026-04-20 21:58 | 27.84547 | -84.11753 | 26190 ft | 546 kts | 86° |
| 2026-04-20 21:58 | 27.84733 | -84.07529 | 26190 ft | 546 kts | 86° |
| 2026-04-20 21:58 | 27.84920 | -84.03247 | 26185 ft | 546 kts | 86° |
| 2026-04-20 21:59 | 27.85117 | -83.98963 | 26185 ft | 546 kts | 85° |
| 2026-04-20 21:59 | 27.85329 | -83.94674 | 26185 ft | 546 kts | 85° |
| 2026-04-20 21:59 | 27.85544 | -83.90398 | 26186 ft | 546 kts | 86° |
| 2026-04-20 21:59 | 27.85761 | -83.86109 | 26177 ft | 546 kts | 86° |
| 2026-04-20 22:00 | 27.85980 | -83.81832 | 26180 ft | 546 kts | 85° |
| 2026-04-20 22:00 | 27.86202 | -83.77540 | 26182 ft | 546 kts | 85° |
| 2026-04-20 22:00 | 27.86424 | -83.73268 | 26176 ft | 545 kts | 85° |
| 2026-04-20 22:00 | 27.86649 | -83.68988 | 26177 ft | 545 kts | 85° |
| 2026-04-20 22:01 | 27.86875 | -83.64703 | 26176 ft | 545 kts | 85° |
| 2026-04-20 22:01 | 27.87102 | -83.60438 | 26165 ft | 545 kts | 85° |
| 2026-04-20 22:01 | 27.87331 | -83.56170 | 26166 ft | 545 kts | 85° |
| 2026-04-20 22:01 | 27.87563 | -83.51886 | 26168 ft | 545 kts | 85° |
| 2026-04-20 22:02 | 27.87765 | -83.47598 | 26163 ft | 546 kts | 87° |
| 2026-04-20 22:02 | 27.87889 | -83.43302 | 26160 ft | 546 kts | 88° |
| 2026-04-20 22:02 | 27.87946 | -83.39058 | 26160 ft | 547 kts | 89° |
| 2026-04-20 22:02 | 27.87967 | -83.34703 | 26160 ft | 547 kts | 89° |
| 2026-04-20 22:03 | 27.87982 | -83.30438 | 26156 ft | 547 kts | 89° |
| 2026-04-20 22:03 | 27.88011 | -83.26142 | 26154 ft | 547 kts | 89° |
| 2026-04-20 22:03 | 27.88043 | -83.21861 | 26154 ft | 547 kts | 89° |
| 2026-04-20 22:03 | 27.88066 | -83.17551 | 26154 ft | 547 kts | 89° |
| 2026-04-20 22:04 | 27.88074 | -83.13257 | 26153 ft | 548 kts | 89° |
| 2026-04-20 22:04 | 27.88073 | -83.08969 | 25481 ft | 542 kts | 89° |
| 2026-04-20 22:04 | 27.88069 | -83.04703 | 23977 ft | 543 kts | 90° |
| 2026-04-20 22:04 | 27.88066 | -83.00441 | 22862 ft | 535 kts | 89° |
| 2026-04-20 22:05 | 27.88063 | -82.96307 | 22154 ft | 517 kts | 89° |
| 2026-04-20 22:05 | 27.88064 | -82.92261 | 21440 ft | 512 kts | 89° |
| 2026-04-20 22:05 | 27.88068 | -82.88232 | 21200 ft | 510 kts | 89° |
| 2026-04-20 22:05 | 27.88069 | -82.84243 | 21145 ft | 509 kts | 89° |
| 2026-04-20 22:06 | 27.88066 | -82.80226 | 21166 ft | 510 kts | 89° |
| 2026-04-20 22:06 | 27.88062 | -82.76219 | 21167 ft | 511 kts | 89° |
| 2026-04-20 22:06 | 27.88058 | -82.72207 | 21163 ft | 511 kts | 89° |
| 2026-04-20 22:06 | 27.88055 | -82.68183 | 21166 ft | 512 kts | 89° |
| 2026-04-20 22:07 | 27.88042 | -82.64163 | 21165 ft | 512 kts | 90° |
| 2026-04-20 22:07 | 27.87998 | -82.60140 | 21155 ft | 512 kts | 90° |
| 2026-04-20 22:07 | 27.87933 | -82.56109 | 21157 ft | 512 kts | 90° |
| 2026-04-20 22:07 | 27.87859 | -82.52095 | 20959 ft | 504 kts | 90° |
| 2026-04-20 22:08 | 27.87784 | -82.48270 | 20580 ft | 472 kts | 90° |
| 2026-04-20 22:08 | 27.87720 | -82.44672 | 20376 ft | 441 kts | 88° |
| 2026-04-20 22:08 | 27.87991 | -82.41320 | 19972 ft | 419 kts | 76° |
| 2026-04-20 22:08 | 27.88805 | -82.38207 | 19282 ft | 406 kts | 64° |
| 2026-04-20 22:09 | 27.89956 | -82.35370 | 18755 ft | 402 kts | 62° |
| 2026-04-20 22:09 | 27.91126 | -82.32507 | 18318 ft | 399 kts | 62° |
| 2026-04-20 22:09 | 27.92298 | -82.29608 | 17212 ft | 412 kts | 63° |
| 2026-04-20 22:09 | 27.93491 | -82.26638 | 15795 ft | 421 kts | 63° |
| 2026-04-20 22:10 | 27.94715 | -82.23578 | 14779 ft | 432 kts | 63° |
| 2026-04-20 22:10 | 27.95949 | -82.20474 | 14113 ft | 429 kts | 63° |
| 2026-04-20 22:10 | 27.97161 | -82.17424 | 13467 ft | 424 kts | 63° |
| 2026-04-20 22:10 | 27.98360 | -82.14414 | 13061 ft | 412 kts | 63° |
| 2026-04-20 22:11 | 27.99509 | -82.11522 | 12940 ft | 388 kts | 62° |
| 2026-04-20 22:11 | 28.00565 | -82.08850 | 12983 ft | 362 kts | 63° |
| 2026-04-20 22:11 | 28.01578 | -82.06294 | 12983 ft | 352 kts | 63° |
| 2026-04-20 22:11 | 28.02573 | -82.03800 | 12981 ft | 338 kts | 62° |
| 2026-04-20 22:12 | 28.03520 | -82.01437 | 12982 ft | 322 kts | 62° |
| 2026-04-20 22:12 | 28.04435 | -81.99152 | 12983 ft | 316 kts | 61° |
| 2026-04-20 22:12 | 28.05339 | -81.96895 | 12983 ft | 315 kts | 61° |
| 2026-04-20 22:12 | 28.06247 | -81.94643 | 12881 ft | 313 kts | 61° |
| 2026-04-20 22:13 | 28.07154 | -81.92415 | 12523 ft | 311 kts | 62° |
| 2026-04-20 22:13 | 28.08061 | -81.90197 | 12186 ft | 309 kts | 61° |
| 2026-04-20 22:13 | 28.08959 | -81.88005 | 11845 ft | 306 kts | 62° |
| 2026-04-20 22:13 | 28.09899 | -81.85853 | 11502 ft | 303 kts | 58° |
| 2026-04-20 22:14 | 28.10864 | -81.83770 | 11166 ft | 301 kts | 58° |
| 2026-04-20 22:14 | 28.11841 | -81.81652 | 10835 ft | 300 kts | 63° |
| 2026-04-20 22:14 | 28.12451 | -81.79432 | 10312 ft | 299 kts | 77° |
| 2026-04-20 22:14 | 28.12523 | -81.77066 | 9733 ft | 296 kts | 93° |
| 2026-04-20 22:15 | 28.12246 | -81.74788 | 9150 ft | 292 kts | 94° |
| 2026-04-20 22:15 | 28.11962 | -81.72518 | 8991 ft | 293 kts | 94° |
| 2026-04-20 22:15 | 28.11678 | -81.70223 | 8990 ft | 295 kts | 95° |
| 2026-04-20 22:15 | 28.11394 | -81.67923 | 8995 ft | 296 kts | 96° |
| 2026-04-20 22:16 | 28.11109 | -81.65644 | 8926 ft | 288 kts | 95° |
| 2026-04-20 22:16 | 28.10829 | -81.63390 | 8306 ft | 288 kts | 94° |
| 2026-04-20 22:16 | 28.10554 | -81.61140 | 7650 ft | 290 kts | 95° |
| 2026-04-20 22:16 | 28.10279 | -81.58895 | 7317 ft | 285 kts | 93° |
| 2026-04-20 22:17 | 28.10007 | -81.56680 | 7028 ft | 281 kts | 95° |
| 2026-04-20 22:17 | 28.09739 | -81.54491 | 6992 ft | 282 kts | 96° |
| 2026-04-20 22:17 | 28.09468 | -81.52282 | 6997 ft | 283 kts | 95° |
| 2026-04-20 22:17 | 28.09196 | -81.50078 | 6991 ft | 283 kts | 93° |
| 2026-04-20 22:18 | 28.08922 | -81.47874 | 6993 ft | 282 kts | 95° |
| 2026-04-20 22:18 | 28.08649 | -81.45701 | 6984 ft | 270 kts | 94° |
| 2026-04-20 22:18 | 28.08391 | -81.43675 | 6986 ft | 252 kts | 93° |
| 2026-04-20 22:18 | 28.08243 | -81.41762 | 6959 ft | 235 kts | 77° |
| 2026-04-20 22:19 | 28.08819 | -81.40158 | 6826 ft | 211 kts | 50° |
| 2026-04-20 22:19 | 28.09660 | -81.38849 | 6532 ft | 203 kts | 50° |
| 2026-04-20 22:19 | 28.10443 | -81.37544 | 6172 ft | 198 kts | 53° |
| 2026-04-20 22:19 | 28.11204 | -81.36250 | 5776 ft | 197 kts | 54° |
| 2026-04-20 22:20 | 28.11963 | -81.34963 | 5379 ft | 195 kts | 53° |
| 2026-04-20 22:20 | 28.12696 | -81.33729 | 5066 ft | 188 kts | 53° |
| 2026-04-20 22:20 | 28.13431 | -81.32497 | 4549 ft | 190 kts | 53° |
| 2026-04-20 22:20 | 28.14166 | -81.31263 | 4241 ft | 184 kts | 53° |
| 2026-04-20 22:21 | 28.14855 | -81.30102 | 4118 ft | 171 kts | 54° |
| 2026-04-20 22:21 | 28.15555 | -81.29091 | 4040 ft | 154 kts | 41° |
| 2026-04-20 22:21 | 28.16388 | -81.28428 | 4013 ft | 142 kts | 28° |
| 2026-04-20 22:21 | 28.17336 | -81.28164 | 4032 ft | 142 kts | 9° |
| 2026-04-20 22:22 | 28.18310 | -81.28081 | 4014 ft | 140 kts | 6° |
| 2026-04-20 22:22 | 28.19285 | -81.28045 | 4002 ft | 141 kts | 4° |
| 2026-04-20 22:22 | 28.20259 | -81.28033 | 3884 ft | 138 kts | 4° |
| 2026-04-20 22:22 | 28.21227 | -81.28032 | 3566 ft | 139 kts | 5° |
| 2026-04-20 22:23 | 28.22191 | -81.28037 | 3263 ft | 139 kts | 6° |
| 2026-04-20 22:23 | 28.23153 | -81.28044 | 3040 ft | 137 kts | 6° |
| 2026-04-20 22:23 | 28.24122 | -81.28053 | 3019 ft | 139 kts | 5° |
| 2026-04-20 22:23 | 28.25149 | -81.28060 | 3022 ft | 156 kts | 5° |
| 2026-04-20 22:24 | 28.26234 | -81.28072 | 2864 ft | 155 kts | 4° |
| 2026-04-20 22:24 | 28.27315 | -81.28084 | 2465 ft | 153 kts | 4° |
| 2026-04-20 22:24 | 28.28355 | -81.28096 | 2148 ft | 145 kts | 4° |
| 2026-04-20 22:24 | 28.29364 | -81.28106 | 1702 ft | 145 kts | 4° |
| 2026-04-20 22:25 | 28.30323 | -81.28116 | 1623 ft | 134 kts | 4° |
| 2026-04-20 22:25 | 28.31234 | -81.28125 | 1617 ft | 130 kts | 3° |
| 2026-04-20 22:25 | 28.32127 | -81.28134 | 1598 ft | 127 kts | 5° |
| 2026-04-20 22:25 | 28.33011 | -81.28142 | 1548 ft | 127 kts | 6° |
| 2026-04-20 22:26 | 28.33896 | -81.28152 | 1484 ft | 125 kts | 5° |
| 2026-04-20 22:26 | 28.34467 | -81.28157 | 1451 ft | 123 kts | 4° |
| 2026-04-20 22:26 | 28.35333 | -81.28158 | 1267 ft | 125 kts | 0° |
| 2026-04-20 22:27 | 28.37074 | -81.28210 | 908 ft | 125 kts | 5° |
| 2026-04-20 22:27 | 28.37960 | -81.28185 | 820 ft | 129 kts | 3° |
| 2026-04-20 22:27 | 28.38881 | -81.28208 | 676 ft | 133 kts | 0° |
| 2026-04-20 22:27 | 28.39791 | -81.28214 | 586 ft | 127 kts | 1° |
| 2026-04-20 22:28 | 28.40684 | -81.28219 | 438 ft | 126 kts | 0° |
| 2026-04-20 22:28 | 28.41574 | -81.28229 | 209 ft | 128 kts | 359° |
| 2026-04-20 22:28 | 28.42446 | -81.28232 | 109 ft | 114 kts | 352° |
| 2026-04-20 22:28 | 28.42921 | -81.28242 | 103 ft | 55 kts | 359° |
| 2026-04-20 22:29 | 28.43234 | -81.28245 | 100 ft | 32 kts | 358° |
| 2026-04-20 22:29 | 28.43432 | -81.28256 | 100 ft | 26 kts | 346° |
| 2026-04-20 22:29 | 28.43531 | -81.28326 | 101 ft | 11 kts | 315° |
| 2026-04-20 22:29 | 28.43588 | -81.28372 | 104 ft | 10 kts | 347° |
| 2026-04-20 22:30 | 28.43674 | -81.28376 | 105 ft | 15 kts | 359° |
| 2026-04-20 22:30 | 28.43786 | -81.28377 | 106 ft | 16 kts | 359° |
| 2026-04-20 22:30 | 28.43874 | -81.28428 | 108 ft | 16 kts | 287° |
| 2026-04-20 22:30 | 28.43875 | -81.28549 | 107 ft | 15 kts | 270° |
| 2026-04-20 22:31 | 28.43875 | -81.28662 | 107 ft | 14 kts | 270° |
| 2026-04-20 22:31 | 28.43874 | -81.28768 | 107 ft | 13 kts | 268° |
| 2026-04-20 22:31 | 28.43873 | -81.28880 | 107 ft | 15 kts | 270° |
| 2026-04-20 22:31 | 28.43870 | -81.29041 | 107 ft | 27 kts | 270° |
| 2026-04-20 22:32 | 28.43869 | -81.29210 | 100 ft | 16 kts | 264° |
| 2026-04-20 22:32 | 28.43791 | -81.29265 | 101 ft | 13 kts | 180° |
| 2026-04-20 22:32 | 28.43704 | -81.29263 | 102 ft | 12 kts | 179° |
| 2026-04-20 22:32 | 28.43623 | -81.29261 | 103 ft | 15 kts | 179° |
| 2026-04-20 22:33 | 28.43553 | -81.29337 | 106 ft | 14 kts | 267° |
| 2026-04-20 22:33 | 28.43553 | -81.29439 | 107 ft | 12 kts | 269° |
| 2026-04-20 22:33 | 28.43551 | -81.29539 | 106 ft | 13 kts | 269° |
| 2026-04-20 22:33 | 28.43550 | -81.29644 | 104 ft | 14 kts | 270° |
| 2026-04-20 22:34 | 28.43496 | -81.29709 | 104 ft | 12 kts | 190° |
| 2026-04-20 22:34 | 28.43361 | -81.29710 | 107 ft | 28 kts | 180° |
| 2026-04-20 22:34 | 28.43124 | -81.29707 | 104 ft | 40 kts | 179° |
| 2026-04-20 22:34 | 28.42853 | -81.29705 | 105 ft | 38 kts | 181° |
| 2026-04-20 22:35 | 28.42609 | -81.29703 | 101 ft | 25 kts | 180° |
| 2026-04-20 22:35 | 28.42489 | -81.29701 | 102 ft | 12 kts | 179° |
| 2026-04-20 22:35 | 28.42389 | -81.29709 | 102 ft | 15 kts | 202° |
| 2026-04-20 22:35 | 28.42363 | -81.29808 | 103 ft | 13 kts | 269° |
| 2026-04-20 22:36 | 28.42362 | -81.29913 | 103 ft | 14 kts | 270° |
| 2026-04-20 22:36 | 28.42360 | -81.30030 | 104 ft | 16 kts | 268° |
| 2026-04-20 22:36 | 28.42361 | -81.30162 | 103 ft | 18 kts | 269° |
| 2026-04-20 22:36 | 28.42357 | -81.30349 | 101 ft | 30 kts | 269° |
| 2026-04-20 22:37 | 28.42345 | -81.30564 | 106 ft | 21 kts | 266° |
| 2026-04-20 22:37 | 28.42334 | -81.30721 | 106 ft | 19 kts | 265° |
| 2026-04-20 22:37 | 28.42322 | -81.30878 | 100 ft | 21 kts | 265° |
| 2026-04-20 22:37 | 28.42320 | -81.31038 | 100 ft | 19 kts | 272° |
| 2026-04-20 22:38 | 28.42342 | -81.31183 | 100 ft | 17 kts | 277° |
| 2026-04-20 22:38 | 28.42387 | -81.31276 | 102 ft | 9 kts | 1° |
| 2026-04-20 22:38 | 28.42444 | -81.31311 | 99 ft | 11 kts | 319° |
| 2026-04-20 22:38 | 28.42509 | -81.31374 | 101 ft | 13 kts | 332° |
| 2026-04-20 22:39 | 28.42597 | -81.31365 | 102 ft | 14 kts | 353° |
| 2026-04-20 22:39 | 28.42662 | -81.31400 | 102 ft | 11 kts | 333° |
| 2026-04-20 22:39 | 28.42681 | -81.31412 | 102 ft | 0 kts | 332° |
| 2026-04-20 22:40 | 28.42583 | -81.31458 | 101 ft | 0 kts | 323° |